JM-0010 weather

Nain Airstrip
Saint Elizabeth, Jamaica

Public forecast

Using degrees Celsius for public forecast. Weather courtesy of forecast.io.

Closest aviation weather report (METAR) to Nain Airstrip

Closest report is Sangster International Airport, 36.1 nm (66.9 km) NNW. Retrieved 2020/07/14 04:00 UTC (9 minutes ago):

MKJS 140400Z 22003KT 9999 FEW022 28/25 Q1016

Closest aviation forecast (TAF) to Nain Airstrip

Closest forecast is Sangster International Airport, 36.1 nm (66.9 km) NNW. Retrieved 2020-07-14 00:08 UTC (4 hours ago):

TAF MKJS 132315Z 1400/1424 12005KT 9999 FEW022 BECMG 1416/1418 05020KT PROB30 TEMPO 1419/1423 TS SCT020 FEW022CB